Impacts TAF Board
For situational awareness. Not to be used for flight planning purposes.
IDs:

KCDS - Childress Muni, TX, US

Issued at 1120 UTC 03 Dec 2021
Updated at 1600 UTC 03 Dec 2021
Potential Impact None Slight Moderate High
Time1553Z 03/16Z 03/17Z 03/18Z 03/19Z 03/20Z 03/21Z 03/22Z 03/23Z 04/00Z 04/01Z 04/02Z 04/03Z 04/04Z>>
Type OBS PRVL PRVL PRVL PRVL PRVL PRVL PRVL PRVL PRVL PRVL PRVL PRVL PRVL
VIS 10 >6 >6 >6 >6 >6 >6 >6 >6 >6 >6 >6 >6 >6
CIG -- -- -- -- -- -- -- -- -- -- -- -- -- --
Cover CLR FEW FEW FEW FEW FEW FEW FEW FEW FEW FEW FEW FEW FEW
FltCat VFR VFR VFR VFR VFR VFR VFR VFR VFR VFR VFR VFR VFR VFR
WX -- -- -- -- -- -- -- -- -- -- -- -- -- --
WDir 290 240 240 240 240 240 240 240 240 350 350 350 350 350
WSpd 3 11 11 11 11 11 11 11 11 11 11 11 11 11
WGst -- -- -- -- -- -- -- -- -- -- -- -- -- --
WSHgt -- -- -- -- -- -- -- -- -- -- -- -- -- --
WSDir -- -- -- -- -- -- -- -- -- -- -- -- -- --
WSSpd -- -- -- -- -- -- -- -- -- -- -- -- -- --
Raw TAF
KCDS 031120Z 0312/0412 24011KT P6SM FEW250
  FM040000 35011KT P6SM FEW250


Raw METAR
KCDS 031553Z AUTO 29003KT 10SM CLR 17/03 A2998 RMK AO2 SLP139 T01670028
KCDS 031453Z AUTO 26006KT 10SM CLR 14/02 A2997 RMK AO2 SLP138 T01390022 51008
KCDS 031353Z AUTO 26007KT 10SM CLR 09/02 A2997 RMK AO2 SLP141 T00890017
KCDS 031253Z AUTO 27007KT 10SM CLR 12/02 A2996 RMK AO2 SLP135 T01170022

METAR Board
Radar Display
Forecast Discussion
For situational awareness. Not to be used for flight planning purposes.